Time;durP1;ratioP1;P1;durP2;ratioP2;P2;SDS_P1;SDS_P2;PMS_P1;PMS_P2;Temp;Humidity;BMP_temperature;BMP_pressure;BME280_temperature;BME280_humidity;BME280_pressure;Samples;Min_cycle;Max_cycle;Signal;HPM_P1;HPM_P2
2023/03/14 00:00:53;;;;;;;;;;;;;;;4.83;61.71;96305.47;5025358;28;1429;-78
2023/03/14 00:03:44;;;;;;;;;;;;;;;4.84;61.76;96322.25;5024755;28;1655;-78
2023/03/14 00:06:35;;;;;;;;;;;;;;;4.84;61.73;96322.25;5025977;28;1477;-77
2023/03/14 00:09:29;;;;;;;;;;;;;;;4.78;61.96;96319.63;5028994;28;1450;-76
2023/03/14 00:12:20;;;;;;;;;;;;;;;4.81;61.85;96334.28;5024355;28;1407;-80
2023/03/14 00:15:11;;;;;;;;;;;;;;;4.81;61.76;96331.59;5028210;28;2273;-79
2023/03/14 00:18:04;;;;;;;;;;;;;;;4.83;61.74;96334.78;5029752;28;1996;-81
2023/03/14 00:20:56;;;;;;;;;;;;;;;4.81;61.64;96344.16;5031128;28;911;-79
2023/03/14 00:23:48;;;;;;;;;;;;;;;4.81;61.78;96354.81;5038522;28;1611;-77
2023/03/14 00:26:40;;;;;;;;;;;;;;;4.85;61.75;96366.47;5028709;28;1563;-77
2023/03/14 00:29:32;;;;;;;;;;;;;;;4.79;61.76;96371.06;5035046;28;2477;-80
2023/03/14 00:32:23;;;;;;;;;;;;;;;4.74;61.94;96384.47;5034174;28;1369;-77
2023/03/14 00:35:14;;;;;;;;;;;;;;;4.78;61.89;96391.63;5040219;28;1424;-78
2023/03/14 00:38:07;;;;;;;;;;;;;;;4.77;61.95;96397.25;5023462;28;2201;-78
2023/03/14 00:40:58;;;;;;;;;;;;;;;4.76;61.83;96401.78;5033854;28;2534;-78
2023/03/14 00:43:51;;;;;;;;;;;;;;;4.78;61.80;96410.28;5034514;28;1350;-77
2023/03/14 00:46:43;;;;;;;;;;;;;;;4.81;61.79;96411.59;5036268;28;1525;-78
2023/03/14 00:49:35;;;;;;;;;;;;;;;4.83;61.75;96425.44;5030096;28;2284;-76
2023/03/14 00:52:27;;;;;;;;;;;;;;;4.84;61.48;96420.88;5031666;28;2456;-79
2023/03/14 00:55:19;;;;;;;;;;;;;;;4.84;61.58;96426.22;5029895;28;1531;-78
2023/03/14 00:58:11;;;;;;;;;;;;;;;4.80;61.73;96426.00;5030340;28;1902;-79
2023/03/14 01:01:02;;;;;;;;;;;;;;;4.78;61.79;96438.81;5033625;28;1453;-77
2023/03/14 01:03:55;;;;;;;;;;;;;;;4.80;61.63;96455.31;5027039;28;2236;-78
2023/03/14 01:06:46;;;;;;;;;;;;;;;4.80;61.67;96455.31;5028146;28;2223;-78
2023/03/14 01:09:38;;;;;;;;;;;;;;;4.78;61.86;96468.91;5022490;28;2295;-76
2023/03/14 01:12:31;;;;;;;;;;;;;;;4.81;61.69;96478.22;5026453;28;2398;-77
2023/03/14 01:15:23;;;;;;;;;;;;;;;4.82;61.63;96492.34;5024631;28;2605;-75
2023/03/14 01:18:14;;;;;;;;;;;;;;;4.80;61.59;96491.84;5022197;28;2746;-77
2023/03/14 01:21:06;;;;;;;;;;;;;;;4.78;61.64;96497.44;5018639;28;2384;-76
2023/03/14 01:23:57;;;;;;;;;;;;;;;4.80;61.65;96494.53;5021772;28;2295;-78
2023/03/14 01:26:50;;;;;;;;;;;;;;;4.85;61.62;96505.91;5028598;28;2443;-77
2023/03/14 01:29:42;;;;;;;;;;;;;;;4.88;61.49;96509.88;5031897;28;2207;-79
2023/03/14 01:32:34;;;;;;;;;;;;;;;4.83;61.56;96510.75;5027719;28;1422;-78
2023/03/14 01:35:26;;;;;;;;;;;;;;;4.82;61.52;96517.13;5024079;28;2339;-77
2023/03/14 01:38:18;;;;;;;;;;;;;;;4.81;61.65;96523.56;5022290;28;2628;-81
2023/03/14 01:41:10;;;;;;;;;;;;;;;4.81;61.59;96528.88;5023586;28;2470;-76
2023/03/14 01:44:02;;;;;;;;;;;;;;;4.83;61.50;96532.06;5026881;28;2603;-78
2023/03/14 01:46:54;;;;;;;;;;;;;;;4.80;61.70;96537.97;5022614;28;2427;-79
2023/03/14 01:49:46;;;;;;;;;;;;;;;4.81;61.62;96530.75;5024692;28;2377;-79
2023/03/14 01:52:38;;;;;;;;;;;;;;;4.85;61.39;96532.56;5023396;28;2438;-77
2023/03/14 01:55:29;;;;;;;;;;;;;;;4.84;61.58;96538.97;5020383;28;2476;-78
2023/03/14 01:58:21;;;;;;;;;;;;;;;4.81;61.56;96549.41;5021552;28;2303;-76
2023/03/14 02:01:13;;;;;;;;;;;;;;;4.81;61.48;96558.22;5020499;28;2390;-78
2023/03/14 02:04:05;;;;;;;;;;;;;;;4.89;61.31;96570.94;5030800;28;2497;-77
2023/03/14 02:06:57;;;;;;;;;;;;;;;4.90;61.34;96561.84;5017088;28;2495;-79
2023/03/14 02:09:49;;;;;;;;;;;;;;;4.89;61.35;96559.47;5021084;28;2462;-77
2023/03/14 02:12:40;;;;;;;;;;;;;;;4.88;61.24;96556.03;5020707;28;2651;-78
2023/03/14 02:15:32;;;;;;;;;;;;;;;4.86;61.46;96555.50;5018818;28;2316;-77
2023/03/14 02:18:24;;;;;;;;;;;;;;;4.87;61.29;96556.28;5021125;28;2466;-79
2023/03/14 02:21:15;;;;;;;;;;;;;;;4.88;61.31;96572.03;5033057;28;2540;-79
2023/03/14 02:24:07;;;;;;;;;;;;;;;4.85;61.35;96583.22;5040122;28;2243;-76
2023/03/14 02:26:59;;;;;;;;;;;;;;;4.97;61.38;96599.69;5033064;28;1241;-78
2023/03/14 02:29:51;;;;;;;;;;;;;;;4.88;61.20;96593.34;5035263;28;2212;-76
2023/03/14 02:32:43;;;;;;;;;;;;;;;4.87;61.60;96599.75;5030806;28;2262;-77
2023/03/14 02:35:35;;;;;;;;;;;;;;;4.89;61.28;96602.94;5031790;28;2188;-77
2023/03/14 02:38:27;;;;;;;;;;;;;;;4.88;61.45;96606.69;5031720;28;1906;-77
2023/03/14 02:41:18;;;;;;;;;;;;;;;4.91;61.14;96600.78;5027546;28;2231;-78
2023/03/14 02:44:10;;;;;;;;;;;;;;;4.94;60.93;96597.56;5025040;28;1628;-78
2023/03/14 02:47:02;;;;;;;;;;;;;;;4.94;61.14;96604.75;5036082;28;2163;-79
2023/03/14 02:49:53;;;;;;;;;;;;;;;4.94;61.22;96605.56;5030388;28;1476;-77
2023/03/14 02:52:46;;;;;;;;;;;;;;;4.98;60.88;96595.94;5032642;28;2429;-79
2023/03/14 02:55:38;;;;;;;;;;;;;;;4.94;61.05;96613.56;5029740;28;1574;-78
2023/03/14 02:58:30;;;;;;;;;;;;;;;4.97;60.96;96617.53;5027977;28;1969;-77
2023/03/14 03:01:22;;;;;;;;;;;;;;;5.06;60.81;96623.88;5034099;28;1517;-77
2023/03/14 03:04:14;;;;;;;;;;;;;;;5.07;60.74;96625.47;5028581;28;2544;-79
2023/03/14 03:07:06;;;;;;;;;;;;;;;5.03;60.65;96624.44;5031582;28;2232;-77
2023/03/14 03:09:57;;;;;;;;;;;;;;;4.95;60.93;96622.34;5023395;28;2579;-78
2023/03/14 03:12:49;;;;;;;;;;;;;;;5.04;60.75;96636.69;5022270;28;2357;-78
2023/03/14 03:15:41;;;;;;;;;;;;;;;5.19;60.31;96641.88;5017228;28;2359;-76
2023/03/14 03:18:32;;;;;;;;;;;;;;;5.03;60.73;96635.09;5019556;28;2407;-79
2023/03/14 03:21:24;;;;;;;;;;;;;;;5.03;60.80;96626.28;5017412;28;2416;-77
2023/03/14 03:24:16;;;;;;;;;;;;;;;5.05;60.62;96637.47;5022432;28;2839;-78
2023/03/14 03:27:08;;;;;;;;;;;;;;;5.13;60.49;96652.88;5018509;28;2445;-77
2023/03/14 03:30:00;;;;;;;;;;;;;;;5.14;60.29;96662.47;5030337;28;2288;-79
2023/03/14 03:32:52;;;;;;;;;;;;;;;5.06;60.77;96681.72;5028267;28;2248;-78
2023/03/14 03:35:44;;;;;;;;;;;;;;;5.05;60.89;96696.94;5033178;28;2169;-76
2023/03/14 03:38:35;;;;;;;;;;;;;;;5.22;60.22;96696.56;5018512;28;2493;-78
2023/03/14 03:41:27;;;;;;;;;;;;;;;5.14;60.37;96702.47;5019218;28;2352;-78
2023/03/14 03:44:19;;;;;;;;;;;;;;;5.18;60.16;96696.31;5019930;28;3068;-78
2023/03/14 03:47:11;;;;;;;;;;;;;;;5.10;60.45;96712.91;5018540;28;2786;-78
2023/03/14 03:50:03;;;;;;;;;;;;;;;5.23;60.18;96724.81;5019704;28;2425;-77
2023/03/14 03:52:54;;;;;;;;;;;;;;;5.22;60.07;96734.69;5021153;28;2619;-78
2023/03/14 03:55:46;;;;;;;;;;;;;;;5.24;60.13;96743.22;5019242;28;2601;-79
2023/03/14 03:58:38;;;;;;;;;;;;;;;5.14;60.16;96743.28;5024311;28;2436;-77
2023/03/14 04:01:30;;;;;;;;;;;;;;;5.31;59.83;96752.78;5023585;28;2374;-78
2023/03/14 04:04:22;;;;;;;;;;;;;;;5.23;60.08;96746.97;5022178;28;2358;-78
2023/03/14 04:07:14;;;;;;;;;;;;;;;5.21;60.30;96751.78;5025111;28;2431;-75
2023/03/14 04:10:06;;;;;;;;;;;;;;;5.34;59.83;96755.69;5022166;28;2395;-78
2023/03/14 04:12:57;;;;;;;;;;;;;;;5.31;59.83;96758.91;5020735;28;2434;-79
2023/03/14 04:15:49;;;;;;;;;;;;;;;5.22;60.14;96765.91;5022946;28;2760;-76
2023/03/14 04:18:41;;;;;;;;;;;;;;;5.45;59.21;96778.56;5025955;28;2508;-77
2023/03/14 04:21:33;;;;;;;;;;;;;;;5.22;60.02;96765.91;5022732;28;2516;-77
2023/03/14 04:24:25;;;;;;;;;;;;;;;5.27;59.97;96763.22;5020678;28;2539;-77
2023/03/14 04:27:17;;;;;;;;;;;;;;;5.30;59.91;96770.69;5023466;28;2509;-78
2023/03/14 04:30:09;;;;;;;;;;;;;;;5.24;60.10;96775.25;5022093;28;2398;-78
2023/03/14 04:33:01;;;;;;;;;;;;;;;5.31;60.00;96776.81;5021416;28;2395;-77
2023/03/14 04:35:53;;;;;;;;;;;;;;;5.36;59.73;96780.22;5018791;28;2398;-80
2023/03/14 04:38:45;;;;;;;;;;;;;;;5.41;59.37;96782.88;5025464;28;2655;-77
2023/03/14 04:41:37;;;;;;;;;;;;;;;5.43;59.43;96787.91;5018782;28;2457;-76
2023/03/14 04:44:29;;;;;;;;;;;;;;;5.49;59.39;96783.34;5024185;28;2438;-77
2023/03/14 04:47:21;;;;;;;;;;;;;;;5.44;59.49;96787.66;5022967;28;2470;-78
2023/03/14 04:50:13;;;;;;;;;;;;;;;5.53;58.96;96795.03;5022539;28;2467;-79
2023/03/14 04:53:05;;;;;;;;;;;;;;;5.36;59.70;96809.59;5021332;28;2430;-77
2023/03/14 04:55:57;;;;;;;;;;;;;;;5.51;59.18;96803.34;5023396;28;2340;-79
2023/03/14 04:58:49;;;;;;;;;;;;;;;5.42;59.61;96807.69;5021443;28;2323;-78
2023/03/14 05:01:41;;;;;;;;;;;;;;;5.49;59.23;96805.50;5023315;28;2584;-78
2023/03/14 05:04:33;;;;;;;;;;;;;;;5.44;59.47;96805.53;5022882;28;2392;-78
2023/03/14 05:07:25;;;;;;;;;;;;;;;5.51;59.03;96800.69;5020002;28;2635;-79
2023/03/14 05:10:17;;;;;;;;;;;;;;;5.38;59.53;96803.97;5020542;28;2498;-78
2023/03/14 05:13:09;;;;;;;;;;;;;;;5.47;59.35;96810.31;5022149;28;2538;-78
2023/03/14 05:16:01;;;;;;;;;;;;;;;5.38;59.51;96807.44;5024377;28;2643;-79
2023/03/14 05:18:53;;;;;;;;;;;;;;;5.54;59.03;96812.69;5019732;28;2442;-79
2023/03/14 05:21:45;;;;;;;;;;;;;;;5.40;59.69;96820.50;5025002;28;2905;-80
2023/03/14 05:24:37;;;;;;;;;;;;;;;5.54;58.91;96810.81;5024548;28;2581;-79
2023/03/14 05:27:29;;;;;;;;;;;;;;;5.42;59.35;96799.69;5025671;28;2707;-78
2023/03/14 05:30:21;;;;;;;;;;;;;;;5.52;59.23;96815.59;5022198;28;2814;-78
2023/03/14 05:33:13;;;;;;;;;;;;;;;5.57;58.82;96825.47;5020524;28;2601;-79
2023/03/14 05:36:05;;;;;;;;;;;;;;;5.52;59.19;96841.50;5023936;28;2360;-78
2023/03/14 05:38:57;;;;;;;;;;;;;;;5.51;59.18;96830.03;5022274;28;2504;-80
2023/03/14 05:41:49;;;;;;;;;;;;;;;5.55;59.05;96833.72;5022123;28;3018;-80
2023/03/14 05:44:41;;;;;;;;;;;;;;;5.53;59.17;96845.75;5019954;28;2373;-77
2023/03/14 05:47:33;;;;;;;;;;;;;;;5.55;59.03;96864.97;5019986;28;2340;-78
2023/03/14 05:50:25;;;;;;;;;;;;;;;5.64;58.78;96877.44;5018986;28;2316;-78
2023/03/14 05:53:17;;;;;;;;;;;;;;;5.58;59.02;96875.88;5024693;28;2430;-79
2023/03/14 05:56:09;;;;;;;;;;;;;;;5.60;58.89;96876.41;5021196;28;2585;-78
2023/03/14 05:59:03;;;;;;;;;;;;;;;5.68;58.70;96891.06;5019687;28;2279;-77
2023/03/14 06:01:55;;;;;;;;;;;;;;;5.68;58.75;96894.53;5021887;28;2297;-78
2023/03/14 06:04:47;;;;;;;;;;;;;;;5.59;59.07;96892.69;5021963;28;2241;-77
2023/03/14 06:07:42;;;;;;;;;;;;;;;5.58;58.91;96886.56;5027914;28;2601;-77
2023/03/14 06:10:34;;;;;;;;;;;;;;;5.75;58.46;96888.88;5023402;28;2331;-77
2023/03/14 06:13:26;;;;;;;;;;;;;;;5.56;58.96;96887.91;5028039;28;2140;-77
2023/03/14 06:16:18;;;;;;;;;;;;;;;5.80;58.19;96904.88;5031225;28;3057;-76
2023/03/14 06:19:10;;;;;;;;;;;;;;;5.60;58.89;96915.66;5028178;28;2284;-77
2023/03/14 06:22:02;;;;;;;;;;;;;;;5.69;58.48;96925.47;5028113;28;2567;-78
2023/03/14 06:24:54;;;;;;;;;;;;;;;5.76;58.34;96935.06;5027425;28;2295;-78
2023/03/14 06:27:46;;;;;;;;;;;;;;;5.77;58.60;96944.69;5026284;28;2229;-79
2023/03/14 06:30:38;;;;;;;;;;;;;;;5.68;58.58;96952.47;5025194;28;2388;-80
2023/03/14 06:33:30;;;;;;;;;;;;;;;5.66;58.93;96965.28;5020922;28;2510;-77
2023/03/14 06:36:22;;;;;;;;;;;;;;;5.73;58.71;96975.66;5026107;28;1296;-78
2023/03/14 06:39:14;;;;;;;;;;;;;;;5.68;58.87;96981.84;5032393;28;1402;-79
2023/03/14 06:42:06;;;;;;;;;;;;;;;5.70;58.70;96983.13;5025636;28;4873;-76
2023/03/14 06:44:58;;;;;;;;;;;;;;;5.69;58.80;96986.91;5022333;28;5229;-78
2023/03/14 06:47:50;;;;;;;;;;;;;;;5.78;58.18;96997.81;5030742;28;5185;-77
2023/03/14 06:50:42;;;;;;;;;;;;;;;5.79;58.48;97012.75;5028106;28;1886;-77
2023/03/14 06:53:34;;;;;;;;;;;;;;;5.80;58.32;97017.03;5029064;28;2464;-79
2023/03/14 06:56:26;;;;;;;;;;;;;;;5.72;58.60;97030.94;5025012;28;2288;-79
2023/03/14 06:59:18;;;;;;;;;;;;;;;5.71;58.63;97021.34;5030418;28;2423;-78
2023/03/14 07:02:10;;;;;;;;;;;;;;;5.82;58.32;97030.09;5029194;28;2129;-78
2023/03/14 07:05:02;;;;;;;;;;;;;;;5.79;58.50;97017.28;5023428;28;5354;-78
2023/03/14 07:07:54;;;;;;;;;;;;;;;5.85;58.21;97013.50;5018391;28;5139;-76
2023/03/14 07:10:46;;;;;;;;;;;;;;;5.85;58.31;97021.53;5018136;28;2607;-75
2023/03/14 07:13:38;;;;;;;;;;;;;;;5.77;58.56;97019.44;5022273;28;4743;-76
2023/03/14 07:16:32;;;;;;;;;;;;;;;6.01;57.69;97022.28;5036177;28;2918;-76
2023/03/14 07:19:24;;;;;;;;;;;;;;;5.90;58.10;97029.53;5030110;28;2400;-78
2023/03/14 07:22:16;;;;;;;;;;;;;;;5.93;58.09;97045.03;5020939;28;2645;-77
2023/03/14 07:25:09;;;;;;;;;;;;;;;5.84;58.15;97055.44;5024812;28;4746;-76
2023/03/14 07:28:00;;;;;;;;;;;;;;;5.94;58.01;97064.50;5022293;28;2406;-77
2023/03/14 07:30:52;;;;;;;;;;;;;;;5.87;58.21;97070.13;5022143;28;3087;-77
2023/03/14 07:33:44;;;;;;;;;;;;;;;5.91;58.19;97066.66;5023095;28;2735;-77
2023/03/14 07:36:36;;;;;;;;;;;;;;;5.95;58.09;97077.59;5023083;28;2785;-77
2023/03/14 07:39:31;;;;;;;;;;;;;;;5.89;58.27;97082.13;5022568;28;2574;-77
2023/03/14 07:42:23;;;;;;;;;;;;;;;5.98;57.91;97085.06;5021854;28;2503;-78
2023/03/14 07:45:15;;;;;;;;;;;;;;;5.99;58.00;97091.22;5021057;28;2456;-78
2023/03/14 07:48:06;;;;;;;;;;;;;;;6.03;57.78;97090.41;5022816;28;2399;-77
2023/03/14 07:50:58;;;;;;;;;;;;;;;6.05;57.73;97093.56;5023414;28;2314;-76
2023/03/14 07:53:50;;;;;;;;;;;;;;;6.11;57.74;97091.69;5016033;28;5210;-78
2023/03/14 07:56:42;;;;;;;;;;;;;;;6.13;57.61;97094.88;5018757;28;2894;-76
2023/03/14 07:59:34;;;;;;;;;;;;;;;6.16;57.44;97094.34;5023284;28;4861;-78
2023/03/14 08:02:26;;;;;;;;;;;;;;;6.10;57.64;97104.25;5022951;28;2344;-77
2023/03/14 08:05:18;;;;;;;;;;;;;;;6.09;57.74;97109.88;5023681;28;2329;-76
2023/03/14 08:08:10;;;;;;;;;;;;;;;6.08;57.77;97108.25;5021524;28;2165;-76
2023/03/14 08:11:02;;;;;;;;;;;;;;;6.14;57.61;97113.31;5023163;28;4901;-78
2023/03/14 08:13:54;;;;;;;;;;;;;;;6.14;57.72;97115.97;5027798;28;2178;-76
2023/03/14 08:16:46;;;;;;;;;;;;;;;6.17;57.63;97125.31;5032596;28;2029;-78
2023/03/14 08:19:38;;;;;;;;;;;;;;;6.27;57.05;97119.94;5030077;28;2080;-77
2023/03/14 08:22:30;;;;;;;;;;;;;;;6.13;57.54;97132.28;5022201;28;2190;-76
2023/03/14 08:25:21;;;;;;;;;;;;;;;6.16;57.87;97139.75;5022117;28;2233;-77
2023/03/14 08:28:13;;;;;;;;;;;;;;;6.16;57.59;97147.78;5027043;28;2281;-77
2023/03/14 08:31:05;;;;;;;;;;;;;;;6.13;57.87;97149.13;5023630;28;2277;-75
2023/03/14 08:33:57;;;;;;;;;;;;;;;6.22;57.46;97153.91;5020251;28;2098;-78
2023/03/14 08:36:50;;;;;;;;;;;;;;;6.35;57.26;97153.28;5022891;28;2358;-77
2023/03/14 08:39:41;;;;;;;;;;;;;;;5.24;53.98;97161.31;5022076;28;2171;-78
2023/03/14 08:42:32;;;;;;;;;;;;;;;5.51;58.79;97169.03;5024798;28;2660;-77
2023/03/14 08:45:24;;;;;;;;;;;;;;;5.76;58.12;97170.84;5025899;28;2242;-76
2023/03/14 08:48:16;;;;;;;;;;;;;;;6.18;56.88;97175.03;5017593;28;4081;-75
2023/03/14 08:51:08;;;;;;;;;;;;;;;6.21;56.78;97187.84;5025178;28;2442;-77
2023/03/14 08:54:00;;;;;;;;;;;;;;;6.16;57.10;97195.88;5021912;28;2781;-81
2023/03/14 08:56:52;;;;;;;;;;;;;;;6.18;57.29;97193.75;5021185;28;2467;-76
2023/03/14 08:59:44;;;;;;;;;;;;;;;6.19;56.98;97202.56;5021387;28;2511;-77
2023/03/14 09:02:36;;;;;;;;;;;;;;;6.13;57.33;97199.88;5017726;28;2459;-76
2023/03/14 09:05:28;;;;;;;;;;;;;;;6.15;57.54;97215.66;5020987;28;2579;-77
2023/03/14 09:08:20;;;;;;;;;;;;;;;6.22;57.47;97234.88;5022812;28;2804;-79
2023/03/14 09:11:12;;;;;;;;;;;;;;;6.29;57.13;97235.38;5019699;28;2419;-75
2023/03/14 09:14:04;;;;;;;;;;;;;;;6.29;57.38;97250.59;5021412;28;2414;-75
2023/03/14 09:16:56;;;;;;;;;;;;;;;6.30;57.32;97241.53;5022453;28;2353;-78
2023/03/14 09:19:48;;;;;;;;;;;;;;;6.24;57.52;97259.47;5032081;28;2558;-79
2023/03/14 09:22:40;;;;;;;;;;;;;;;6.22;57.85;97266.94;5025689;28;2407;-76
2023/03/14 09:25:32;;;;;;;;;;;;;;;6.31;57.32;97272.53;5022867;28;2146;-76
2023/03/14 09:28:24;;;;;;;;;;;;;;;6.29;57.45;97275.47;5029843;28;2221;-77
2023/03/14 09:31:16;;;;;;;;;;;;;;;6.24;57.49;97275.50;5022819;28;2292;-77
2023/03/14 09:34:08;;;;;;;;;;;;;;;6.31;57.51;97275.19;5022616;28;2137;-75
2023/03/14 09:37:00;;;;;;;;;;;;;;;6.28;57.53;97281.09;5022011;28;2229;-74
2023/03/14 09:39:52;;;;;;;;;;;;;;;6.25;57.69;97293.13;5023637;28;2826;-77
2023/03/14 09:42:44;;;;;;;;;;;;;;;6.25;57.68;97293.13;5022498;28;2282;-77
2023/03/14 09:45:36;;;;;;;;;;;;;;;6.34;57.72;97293.38;5021263;28;2269;-76
2023/03/14 09:48:28;;;;;;;;;;;;;;;6.29;57.66;97304.06;5026330;28;2162;-76
2023/03/14 09:51:21;;;;;;;;;;;;;;;6.23;58.07;97308.63;5027709;28;2260;-76
2023/03/14 09:54:16;;;;;;;;;;;;;;;6.33;57.77;97318.50;5022946;28;2879;-76
2023/03/14 09:57:07;;;;;;;;;;;;;;;6.31;57.83;97321.44;5026027;28;2219;-76
2023/03/14 09:59:59;;;;;;;;;;;;;;;6.41;57.43;97320.59;5028679;28;2253;-75
2023/03/14 10:02:51;;;;;;;;;;;;;;;6.32;58.07;97322.22;5023257;28;1364;-75
2023/03/14 10:05:43;;;;;;;;;;;;;;;6.21;58.19;97313.44;5035561;28;1299;-77
2023/03/14 10:08:35;;;;;;;;;;;;;;;6.29;57.98;97323.56;5030707;28;2380;-76
2023/03/14 10:11:27;;;;;;;;;;;;;;;6.32;58.00;97328.41;5029265;28;1215;-75
2023/03/14 10:14:20;;;;;;;;;;;;;;;6.24;58.09;97330.81;5030416;28;897;-76
2023/03/14 10:17:11;;;;;;;;;;;;;;;6.29;57.87;97334.25;5035869;28;1493;-77
2023/03/14 10:20:03;;;;;;;;;;;;;;;6.35;57.97;97343.06;5028470;28;2396;-76
2023/03/14 10:22:55;;;;;;;;;;;;;;;6.27;58.30;97346.31;5032092;28;2226;-76
2023/03/14 10:25:46;;;;;;;;;;;;;;;6.37;57.96;97343.63;5034673;28;2391;-76
2023/03/14 10:28:38;;;;;;;;;;;;;;;6.33;57.71;97361.28;5036089;28;2195;-77
2023/03/14 10:31:30;;;;;;;;;;;;;;;6.31;57.88;97366.06;5017259;28;2289;-76
2023/03/14 10:34:22;;;;;;;;;;;;;;;6.35;57.81;97375.97;5023915;28;2287;-76
2023/03/14 10:37:14;;;;;;;;;;;;;;;6.30;57.91;97378.66;5028999;28;2353;-76
2023/03/14 10:40:07;;;;;;;;;;;;;;;6.36;57.96;97379.44;5028465;28;2345;-75
2023/03/14 10:42:58;;;;;;;;;;;;;;;6.30;58.21;97389.34;5025688;28;2516;-77
2023/03/14 10:45:51;;;;;;;;;;;;;;;6.32;58.12;97384.53;5030307;28;2325;-77
2023/03/14 10:48:43;;;;;;;;;;;;;;;6.22;58.45;97379.19;5019951;28;2365;-77
2023/03/14 10:51:35;;;;;;;;;;;;;;;6.28;58.32;97393.34;5017806;28;2337;-75
2023/03/14 10:54:27;;;;;;;;;;;;;;;6.26;58.43;97395.47;5022714;28;2301;-75
2023/03/14 10:57:19;;;;;;;;;;;;;;;6.24;58.46;97392.28;5020962;28;2328;-75
2023/03/14 11:00:11;;;;;;;;;;;;;;;6.25;58.55;97404.56;5022696;28;2489;-77
2023/03/14 11:03:03;;;;;;;;;;;;;;;6.39;58.27;97410.97;5020407;28;2423;-77
2023/03/14 11:05:54;;;;;;;;;;;;;;;6.23;58.50;97420.06;5026557;28;2289;-77
2023/03/14 11:08:46;;;;;;;;;;;;;;;6.31;58.41;97409.63;5023160;28;2553;-79
2023/03/14 11:11:38;;;;;;;;;;;;;;;6.31;58.32;97416.84;5021845;28;2387;-78
2023/03/14 11:14:31;;;;;;;;;;;;;;;6.26;58.77;97425.66;5026570;28;2127;-78
2023/03/14 11:17:23;;;;;;;;;;;;;;;6.26;58.79;97427.53;5035550;28;2420;-79
2023/03/14 11:20:15;;;;;;;;;;;;;;;6.24;58.59;97430.50;5024909;28;2558;-76
2023/03/14 11:23:07;;;;;;;;;;;;;;;6.33;58.60;97433.44;5024942;28;2456;-79
2023/03/14 11:25:59;;;;;;;;;;;;;;;6.26;58.74;97436.34;5028885;28;2286;-79
2023/03/14 11:28:51;;;;;;;;;;;;;;;6.25;58.57;97433.97;5025659;28;2301;-78
2023/03/14 11:31:43;;;;;;;;;;;;;;;6.27;58.67;97432.63;5024040;28;2361;-79
2023/03/14 11:34:35;;;;;;;;;;;;;;;6.31;58.47;97443.59;5022865;28;2340;-79
2023/03/14 11:37:27;;;;;;;;;;;;;;;6.26;58.60;97440.91;5032293;28;2313;-76
2023/03/14 11:40:19;;;;;;;;;;;;;;;6.23;59.00;97447.59;5021839;28;2380;-79
2023/03/14 11:43:11;;;;;;;;;;;;;;;6.25;59.08;97444.66;5024779;28;2477;-79
2023/03/14 11:46:03;;;;;;;;;;;;;;;6.25;58.98;97453.47;5026830;28;2336;-77
2023/03/14 11:48:55;;;;;;;;;;;;;;;6.35;58.53;97460.69;5030502;28;2297;-79
2023/03/14 11:51:47;;;;;;;;;;;;;;;6.31;58.89;97462.31;5032387;28;2387;-79
2023/03/14 11:54:39;;;;;;;;;;;;;;;6.21;58.99;97467.66;5029297;28;2781;-78
2023/03/14 11:57:31;;;;;;;;;;;;;;;6.28;58.79;97471.66;5027568;28;2447;-80
2023/03/14 12:00:23;;;;;;;;;;;;;;;6.25;58.99;97468.72;5033546;28;2460;-77
2023/03/14 12:03:15;;;;;;;;;;;;;;;6.09;59.58;97471.38;5027946;28;2380;-80
2023/03/14 12:06:07;;;;;;;;;;;;;;;5.99;60.06;97474.00;5134890;22;3772;-79
2023/03/14 12:08:59;;;;;;;;;;;;;;;6.08;59.64;97483.13;5058081;22;3612;-77
2023/03/14 12:11:52;;;;;;;;;;;;;;;5.98;60.00;97490.31;5049412;28;2347;-77
2023/03/14 12:14:44;;;;;;;;;;;;;;;5.98;60.21;97491.13;5052585;28;2448;-78
2023/03/14 12:17:35;;;;;;;;;;;;;;;6.06;59.90;97495.13;5052849;28;2499;-78
2023/03/14 12:20:27;;;;;;;;;;;;;;;6.06;59.92;97493.28;5052658;28;1526;-79
2023/03/14 12:23:20;;;;;;;;;;;;;;;6.04;60.21;97492.72;5054598;28;2521;-77
2023/03/14 12:26:11;;;;;;;;;;;;;;;5.98;60.51;97507.16;5045931;28;2407;-79
2023/03/14 12:29:02;;;;;;;;;;;;;;;5.93;60.60;97509.81;5057289;28;2347;-76
2023/03/14 12:31:54;;;;;;;;;;;;;;;5.94;60.59;97511.41;5053935;28;2241;-77
2023/03/14 12:34:46;;;;;;;;;;;;;;;5.90;60.81;97505.75;5048751;28;2441;-78
2023/03/14 12:37:38;;;;;;;;;;;;;;;5.87;61.11;97516.97;5048138;28;2602;-78
2023/03/14 12:40:30;;;;;;;;;;;;;;;5.91;61.10;97514.56;5046185;28;2406;-78
2023/03/14 12:43:22;;;;;;;;;;;;;;;5.88;61.20;97523.94;5053547;28;2466;-79
2023/03/14 12:46:14;;;;;;;;;;;;;;;5.86;61.09;97530.59;5054169;28;2379;-78
2023/03/14 12:49:05;;;;;;;;;;;;;;;5.89;61.19;97536.22;5060644;28;2323;-77
2023/03/14 12:51:57;;;;;;;;;;;;;;;5.92;60.99;97537.56;5058545;28;2458;-78
2023/03/14 12:54:49;;;;;;;;;;;;;;;5.92;61.32;97546.38;5051985;28;2354;-79
2023/03/14 12:57:41;;;;;;;;;;;;;;;5.92;61.17;97557.06;5060593;28;2309;-78
2023/03/14 13:00:32;;;;;;;;;;;;;;;5.92;61.00;97564.28;5058371;28;2339;-78
2023/03/14 13:03:26;;;;;;;;;;;;;;;5.91;61.15;97565.31;5058889;28;2292;-77
2023/03/14 13:06:18;;;;;;;;;;;;;;;5.89;61.46;97572.81;5063347;28;2521;-78
2023/03/14 13:09:10;;;;;;;;;;;;;;;5.94;61.31;97580.84;5058167;28;2687;-76
2023/03/14 13:12:02;;;;;;;;;;;;;;;5.92;61.64;97586.44;5058359;28;1433;-78
2023/03/14 13:14:54;;;;;;;;;;;;;;;5.96;61.48;97580.59;5053475;28;2311;-80
2023/03/14 13:17:46;;;;;;;;;;;;;;;5.99;61.32;97596.91;5056425;28;2491;-77
2023/03/14 13:20:38;;;;;;;;;;;;;;;6.01;61.06;97592.13;5059307;28;1569;-78
2023/03/14 13:23:30;;;;;;;;;;;;;;;5.99;61.55;97598.78;5050882;28;2355;-78
2023/03/14 13:26:22;;;;;;;;;;;;;;;6.02;61.28;97611.63;5067451;28;1839;-77
2023/03/14 13:29:14;;;;;;;;;;;;;;;6.02;61.27;97612.41;5051006;28;3446;-77
2023/03/14 13:32:06;;;;;;;;;;;;;;;6.03;61.29;97613.22;5045595;28;2549;-78
2023/03/14 13:34:58;;;;;;;;;;;;;;;6.04;61.37;97628.19;5057683;28;2940;-78
2023/03/14 13:37:50;;;;;;;;;;;;;;;6.05;61.56;97630.59;5056163;28;2620;-78
2023/03/14 13:40:42;;;;;;;;;;;;;;;6.06;61.53;97637.56;5058070;28;2602;-78
2023/03/14 13:43:34;;;;;;;;;;;;;;;6.12;61.58;97639.19;5051201;28;2671;-78
2023/03/14 13:46:26;;;;;;;;;;;;;;;6.12;61.52;97641.06;5043955;28;2695;-78
2023/03/14 13:49:18;;;;;;;;;;;;;;;6.12;61.66;97651.75;5051023;28;2970;-78
2023/03/14 13:52:10;;;;;;;;;;;;;;;6.09;61.60;97653.06;5049441;28;2175;-78
2023/03/14 13:55:03;;;;;;;;;;;;;;;6.12;61.74;97649.09;5048802;28;2566;-80
2023/03/14 13:57:54;;;;;;;;;;;;;;;6.15;61.47;97661.91;5049397;28;2757;-78
2023/03/14 14:00:46;;;;;;;;;;;;;;;6.18;61.84;97661.41;5060512;28;2094;-79
2023/03/14 14:03:38;;;;;;;;;;;;;;;6.18;61.31;97661.41;5056457;28;2639;-79
2023/03/14 14:06:30;;;;;;;;;;;;;;;6.14;61.73;97661.09;5055531;28;2599;-80
2023/03/14 14:09:22;;;;;;;;;;;;;;;6.19;61.59;97663.00;5064121;28;2271;-80
2023/03/14 14:12:14;;;;;;;;;;;;;;;6.19;61.89;97668.34;5039479;28;2484;-76
2023/03/14 14:15:07;;;;;;;;;;;;;;;6.17;61.99;97673.13;5035188;28;2397;-77
2023/03/14 14:18:01;;;;;;;;;;;;;;;6.14;61.95;97679.78;5043042;28;2627;-76
2023/03/14 14:20:56;;;;;;;;;;;;;;;6.16;61.82;97673.41;5052477;28;2469;-74
2023/03/14 14:23:55;;;;;;;;;;;;;;;6.16;61.88;97682.22;5062469;28;1478;-78
2023/03/14 14:26:52;;;;;;;;;;;;;;;6.19;61.91;97696.94;5046199;28;2179;-79
2023/03/14 14:29:44;;;;;;;;;;;;;;;6.22;62.19;97686.53;5041920;28;2342;-78
2023/03/14 14:32:36;;;;;;;;;;;;;;;6.20;61.98;97677.94;5049167;28;2481;-77
2023/03/14 14:35:36;;;;;;;;;;;;;;;6.25;61.98;97679.84;5054285;28;1573;-78
2023/03/14 14:38:28;;;;;;;;;;;;;;;6.24;62.12;97679.06;5059223;28;1517;-78
2023/03/14 14:41:20;;;;;;;;;;;;;;;6.24;61.99;97684.41;5053962;28;2293;-79
2023/03/14 14:44:12;;;;;;;;;;;;;;;6.25;62.16;97690.53;5055901;28;1007;-79
2023/03/14 14:47:03;;;;;;;;;;;;;;;6.26;62.55;97695.63;5044801;28;2425;-79
2023/03/14 14:49:55;;;;;;;;;;;;;;;6.29;62.41;97705.78;5042801;28;2363;-78
2023/03/14 14:52:47;;;;;;;;;;;;;;;6.32;62.14;97723.19;5048647;28;2568;-77
2023/03/14 14:55:39;;;;;;;;;;;;;;;6.33;62.12;97724.81;5042886;28;2433;-78
2023/03/14 14:58:31;;;;;;;;;;;;;;;6.33;62.07;97725.59;5045608;28;2231;-80
2023/03/14 15:01:23;;;;;;;;;;;;;;;6.33;62.41;97725.59;5052725;28;2356;-79
2023/03/14 15:04:15;;;;;;;;;;;;;;;6.33;62.60;97736.28;5057534;28;2327;-79
2023/03/14 15:07:07;;;;;;;;;;;;;;;6.39;62.15;97736.31;5058920;28;1690;-76
2023/03/14 15:09:58;;;;;;;;;;;;;;;6.39;62.46;97744.34;5052338;28;2466;-76
2023/03/14 15:12:50;;;;;;;;;;;;;;;6.44;62.29;97758.53;5061423;28;2382;-78
2023/03/14 15:15:43;;;;;;;;;;;;;;;6.46;61.97;97764.41;5056598;28;2229;-77
2023/03/14 15:18:34;;;;;;;;;;;;;;;6.43;62.32;97780.19;5045338;28;2260;-76